Agoura Hills, CA (91301)

7:24 PM PST on February 05, 2016 (GMT -0800)
Agoura Hills | | Change Station
CLOSE
Current Station
Personal Weather Station
Location: Agoura Hills, CA
Elevation: 932 ft
Nearby Weather Stations
Active Advisory: Wind Advisory

Elev 932 ft 34.15 °N, 118.76 °W | Updated 33 seconds ago

Clear
Clear
60.4 °F
Feels Like 60.4 °F
N
1.1
Wind Variable Wind from SE

Today
High -- | Low -- °F
--% Chance of Precip.
Yesterday
High -- | Low -- °F
Precip. -- in
Pressure 30.27 in
Visibility 10.0 miles
Clouds Clear
Dew Point 23 °F
Humidity 24%
Rainfall 0.00 in
Snow Depth Not available.
6:49 AM 5:28 PM
Waning Crescent, 8% visible
METAR KVNY 060251Z 36012KT 10SM CLR 18/M07 A3028 RMK AO2 SLP250 T01781067 53011
Pressure 30.27 in
Visibility 10.0 miles
Clouds Clear
Dew Point 23 °F
Humidity 24%
Rainfall 0.00 in
Snow Depth Not available.
6:49 AM 5:28 PM
Waning Crescent, 8% visible
METAR KVNY 060251Z 36012KT 10SM CLR 18/M07 A3028 RMK AO2 SLP250 T01781067 53011

10-Day Weather Forecast

Almanac

Astronomy

Feb. 05, 2016 Rise Set
Actual Time
Civil Twilight
Nautical Twilight
Astronomical Twilight
Moon
Length of Visible Light
Length of Day
Tomorrow will be .
, % of the Moon is Illuminated

Today's Extremes

State Highs State Lows

Community

WunderPhotos

Upload Photos

1,890,918 photos uploaded!

WunderBlog® & News

Nearby

Air Quality

  Air Quality AQ Index Pollutant
Not available.

Snow Depth

Station Depth Elevation

Earthquake Activity

City Distance Mag. Time & Date
Minimum magnitude displayed is 2.5.

Coastal Water Temperatures

Place Temperature

Stations

Nearby Weather Stations

Station Location Temp. Windchill Dew Point Humidity Wind Precip. Elev Updated Type
                   

Watches & Warnings

Wind Advisory
Issued: 11:05 AM PST Feb. 5, 2016 – National Weather Service

... Wind Advisory remains in effect until 2 PM PST Saturday...

* winds... areas of northeast winds 20 to 30 with gusts 45 mph.
Locations most prone to Santa Ana winds include the eastern
portion of Ventura County... the Santa Clarita valley... the
western San Fernando Valley... and the Santa Monica Mountains.

* Impacts... gusty winds will make driving difficult... especially
for drivers of high profile vehicles.

Precautionary/preparedness actions...

When driving... use extra caution. Be prepared for sudden gusty
cross winds.